Old Monroe, MO

1:51 PM CDT on August 30, 2015 (GMT -0500)
St. Paul (SJC) | | Change Station
CLOSE
Current Station
Personal Weather Station
Location: OFallon, MO
Elevation: 520 ft
Nearby Weather Stations

Elev 520 ft 38.86 °N, 90.75 °W | Updated 7 seconds ago

Partly Cloudy
Partly Cloudy
86.3 °F
Feels Like 94 °F
N
0.0
Wind Variable Wind from ESE
Gusts 0.0 mph

Today
High -- | Low -- °F
--% Chance of Precip.
Yesterday
High -- | Low -- °F
Precip. -- in
6:29 AM 7:36 PM
Full, 98% visible
Pressure 30.01 in
Visibility 10.0 miles
Clouds Mostly Cloudy 3900 ft
Heat Index 94 °F
Dew Point 74 °F
Humidity 67%
Rainfall 0.00 in
Snow Depth Not available.
UV 5 out of 12
Pollen 10.60 out of 12
Air Quality Not available.
Flu Activity Not available.
METAR KSET 301754Z AUTO 00000KT 10SM BKN039 29/21 A3003 RMK AO2 SLP162 T02890206 10289 20189 58010
Pressure 30.01 in
Visibility 10.0 miles
Clouds Mostly Cloudy 3900 ft
Heat Index 94 °F
Dew Point 74 °F
Humidity 67%
Rainfall 0.00 in
Snow Depth Not available.
UV 5 out of 12
Pollen 10.60 out of 12
Air Quality Not available.
Flu Activity Not available.
METAR KSET 301754Z AUTO 00000KT 10SM BKN039 29/21 A3003 RMK AO2 SLP162 T02890206 10289 20189 58010

10-Day Weather Forecast

×

Almanac

Astronomy

Aug. 30, 2015 Rise Set
Actual Time
Civil Twilight
Nautical Twilight
Astronomical Twilight
Moon
Length of Visible Light
Length of Day
Tomorrow will be .
, % of the Moon is Illuminated

Today's Extremes

State Highs State Lows

Community

WunderPhotos

Upload Photos

1,851,031 photos uploaded!

WunderBlogs® & News

Nearby

Air Quality

  Air Quality AQ Index Pollutant
Not available.

Snow Depth

Station Depth Elevation

Earthquake Activity

City Distance Mag. Time & Date
Minimum magnitude displayed is 2.5.

Coastal Water Temperatures

Place Temperature

Stations

Nearby Weather Stations

Station Location Temp. Windchill Dew Point Humidity Wind Precip. Elev Updated Type